Time;durP1;ratioP1;P1;durP2;ratioP2;P2;SDS_P1;SDS_P2;PMS_P1;PMS_P2;Temp;Humidity;BMP_temperature;BMP_pressure;BME280_temperature;BME280_humidity;BME280_pressure;Samples;Min_cycle;Max_cycle;Signal;HPM_P1;HPM_P2
2021/04/13 00:02:38;;;;;;;17.70;13.77;;;7.10;91.30;;;;;;5023060;28;20482;-77
2021/04/13 00:05:21;;;;;;;17.30;13.97;;;7.10;91.40;;;;;;5012581;28;20381;-77
2021/04/13 00:07:48;;;;;;;20.23;14.43;;;7.00;91.40;;;;;;5023143;28;20532;-77
2021/04/13 00:10:24;;;;;;;18.53;14.70;;;7.00;91.40;;;;;;5031839;28;20491;-77
2021/04/13 00:12:51;;;;;;;16.20;13.60;;;7.00;91.50;;;;;;5028548;28;20498;-77
2021/04/13 00:15:28;;;;;;;17.97;15.10;;;7.00;91.40;;;;;;5014461;28;20480;-77
2021/04/13 00:17:55;;;;;;;18.87;15.30;;;6.90;91.40;;;;;;5030705;28;20424;-77
2021/04/13 00:20:30;;;;;;;18.57;14.80;;;6.90;91.60;;;;;;5030846;28;20422;-79
2021/04/13 00:22:56;;;;;;;19.17;15.10;;;7.00;91.70;;;;;;5028778;28;20959;-76
2021/04/13 00:25:32;;;;;;;22.80;15.93;;;7.00;91.70;;;;;;5030901;28;20411;-77
2021/04/13 00:27:58;;;;;;;18.57;15.50;;;7.00;91.50;;;;;;5031320;28;20392;-76
2021/04/13 00:30:40;;;;;;;16.10;14.23;;;7.00;91.50;;;;;;5032027;28;20881;-76
2021/04/13 00:33:06;;;;;;;17.27;14.80;;;7.10;91.40;;;;;;5031795;28;20852;-76
2021/04/13 00:35:44;;;;;;;19.37;14.90;;;7.10;91.20;;;;;;5031524;28;20914;-79
2021/04/13 00:38:30;;;;;;;19.03;15.03;;;7.00;91.00;;;;;;5026403;28;20437;-76
2021/04/13 00:41:05;;;;;;;17.27;14.33;;;7.00;90.90;;;;;;5030906;28;20442;-77
2021/04/13 00:43:31;;;;;;;18.83;15.27;;;6.90;90.90;;;;;;5030533;28;20955;-79
2021/04/13 00:45:57;;;;;;;19.67;15.50;;;6.80;91.00;;;;;;5030995;28;20187;-77
2021/04/13 00:48:32;;;;;;;19.43;15.17;;;6.80;91.10;;;;;;5030390;28;20440;-76
2021/04/13 00:51:08;;;;;;;17.42;14.15;;;6.70;91.10;;;;;;5031395;28;20387;-76
2021/04/13 00:53:37;;;;;;;17.85;14.80;;;6.60;91.20;;;;;;5029538;28;20568;-79
2021/04/13 00:56:07;;;;;;;19.27;15.73;;;6.60;91.30;;;;;;5031613;28;20171;-76
2021/04/13 00:58:36;;;;;;;18.75;14.25;;;6.50;91.30;;;;;;5030902;28;20901;-79
2021/04/13 01:01:12;;;;;;;18.98;14.93;;;6.40;91.40;;;;;;5031387;28;20179;-76
2021/04/13 01:03:49;;;;;;;18.30;14.90;;;6.40;91.50;;;;;;5030602;28;20207;-76
2021/04/13 01:06:27;;;;;;;20.83;15.50;;;6.30;91.70;;;;;;5031700;28;20496;-76
2021/04/13 01:09:24;;;;;;;18.90;14.90;;;6.30;91.90;;;;;;5030659;28;20261;-76
2021/04/13 01:11:57;;;;;;;18.63;14.93;;;6.20;92.30;;;;;;5030839;28;20254;-76
2021/04/13 01:14:26;;;;;;;21.80;17.13;;;6.20;92.60;;;;;;5014612;28;20201;-76
2021/04/13 01:16:59;;;;;;;20.60;16.25;;;6.30;92.80;;;;;;5025353;28;20210;-76
2021/04/13 01:20:02;;;;;;;19.93;15.20;;;6.30;92.80;;;;;;5030206;28;20633;-76
2021/04/13 01:25:28;;;;;;;22.23;15.83;;;6.30;92.50;;;;;;5017418;28;20269;-76
2021/04/13 01:28:15;;;;;;;17.45;14.15;;;6.20;92.10;;;;;;5033971;28;20403;-76
2021/04/13 01:30:46;;;;;;;20.90;16.15;;;6.20;92.10;;;;;;5033948;28;20182;-76
2021/04/13 01:33:19;;;;;;;19.58;15.40;;;6.10;92.00;;;;;;5034287;28;20222;-76
2021/04/13 01:35:51;;;;;;;18.75;15.00;;;6.10;92.00;;;;;;5033141;28;20602;-76
2021/04/13 01:38:22;;;;;;;20.00;15.75;;;6.00;92.10;;;;;;5034722;28;20202;-76
2021/04/13 01:43:23;;;;;;;18.38;14.48;;;5.90;92.20;;;;;;5034281;28;20209;-76
2021/04/13 01:45:50;;;;;;;19.58;15.85;;;5.90;92.40;;;;;;5033351;28;20190;-76
2021/04/13 01:48:17;;;;;;;20.75;16.52;;;5.80;92.50;;;;;;5034089;28;20174;-76
2021/04/13 01:50:46;;;;;;;19.30;16.15;;;5.80;92.80;;;;;;5033505;28;20170;-76
2021/04/13 01:53:16;;;;;;;20.88;14.80;;;5.70;92.70;;;;;;5034229;28;20179;-76
2021/04/13 01:56:10;;;;;;;18.63;14.85;;;5.70;92.90;;;;;;5033585;28;20216;-77
2021/04/13 01:58:46;;;;;;;18.55;14.93;;;5.70;93.00;;;;;;5027115;28;20557;-80
2021/04/13 02:01:19;;;;;;;20.30;15.65;;;5.70;93.00;;;;;;5034155;28;20213;-76
2021/04/13 02:04:03;;;;;;;19.08;15.75;;;5.70;93.00;;;;;;5033505;28;20201;-77
2021/04/13 02:06:40;;;;;;;18.77;15.38;;;5.70;93.10;;;;;;5032937;28;20597;-76
2021/04/13 02:09:24;;;;;;;21.23;16.17;;;5.60;93.10;;;;;;5032721;28;20175;-76
2021/04/13 02:11:53;;;;;;;20.00;14.75;;;5.60;93.10;;;;;;5033573;28;20186;-77
2021/04/13 02:14:21;;;;;;;17.88;15.13;;;5.60;93.30;;;;;;5033973;28;20186;-76
2021/04/13 02:17:08;;;;;;;19.90;15.30;;;5.60;93.30;;;;;;5033133;28;20529;-76
2021/04/13 02:19:36;;;;;;;19.70;14.85;;;5.70;93.20;;;;;;5034457;28;20250;-77
2021/04/13 02:22:07;;;;;;;20.17;15.40;;;5.60;92.80;;;;;;5033405;28;20677;-77
2021/04/13 02:24:33;;;;;;;22.55;14.93;;;5.60;92.90;;;;;;5032412;28;20198;-76
2021/04/13 02:27:03;;;;;;;18.90;15.00;;;5.60;93.00;;;;;;5031638;28;20240;-77
2021/04/13 02:29:45;;;;;;;18.85;14.60;;;5.70;93.10;;;;;;5033908;28;20166;-76
2021/04/13 02:32:18;;;;;;;19.63;15.30;;;5.70;93.10;;;;;;5033522;28;20245;-76
2021/04/13 02:34:53;;;;;;;18.13;14.63;;;5.70;93.10;;;;;;5032551;28;20189;-77
2021/04/13 02:37:39;;;;;;;17.23;13.88;;;5.70;93.00;;;;;;5032053;28;20178;-76
2021/04/13 02:40:18;;;;;;;18.52;14.48;;;5.80;92.80;;;;;;5033326;28;20186;-76
2021/04/13 02:42:47;;;;;;;24.58;15.48;;;5.70;92.80;;;;;;5032862;28;20221;-77
2021/04/13 02:45:25;;;;;;;17.10;14.70;;;5.70;92.90;;;;;;5033389;28;20642;-77
2021/04/13 02:47:55;;;;;;;18.70;14.15;;;5.70;92.60;;;;;;5033018;28;20604;-77
2021/04/13 02:50:22;;;;;;;18.30;14.82;;;5.60;92.60;;;;;;5031945;28;20162;-76
2021/04/13 02:52:51;;;;;;;19.05;14.35;;;5.60;93.20;;;;;;5032701;28;20214;-79
2021/04/13 02:55:26;;;;;;;20.02;15.23;;;5.60;93.50;;;;;;5032614;28;20634;-79
2021/04/13 02:57:55;;;;;;;21.38;15.60;;;5.50;93.70;;;;;;5032337;28;20197;-79
2021/04/13 03:00:31;;;;;;;19.60;15.07;;;5.60;94.10;;;;;;5032848;28;20201;-79
2021/04/13 03:03:03;;;;;;;19.00;15.43;;;5.60;94.20;;;;;;5032241;28;20194;-79
2021/04/13 03:05:30;;;;;;;18.15;15.52;;;5.50;94.30;;;;;;5032676;28;20615;-79
2021/04/13 03:07:57;;;;;;;18.92;15.10;;;5.60;94.30;;;;;;5032049;28;20182;-79
2021/04/13 03:10:37;;;;;;;19.80;14.68;;;5.50;94.20;;;;;;5033392;28;20273;-79
2021/04/13 03:13:16;;;;;;;18.33;15.65;;;5.50;94.00;;;;;;5032339;28;20166;-80
2021/04/13 03:15:49;;;;;;;20.67;16.20;;;5.50;93.90;;;;;;5032201;28;20163;-83
2021/04/13 03:18:19;;;;;;;19.75;15.40;;;5.50;93.70;;;;;;5033055;28;20548;-80
2021/04/13 03:20:49;;;;;;;17.80;14.35;;;5.50;93.70;;;;;;5031709;28;20638;-80
2021/04/13 03:23:18;;;;;;;20.95;15.10;;;5.50;93.60;;;;;;5031515;28;20194;-80
2021/04/13 03:25:53;;;;;;;21.58;16.65;;;5.50;93.50;;;;;;5032131;28;20189;-81
2021/04/13 03:28:24;;;;;;;18.58;14.43;;;5.40;93.50;;;;;;5032701;28;20245;-79
2021/04/13 03:30:50;;;;;;;20.33;15.57;;;5.30;93.60;;;;;;5032066;28;20167;-80
2021/04/13 03:33:22;;;;;;;19.27;14.68;;;5.30;93.90;;;;;;5032498;28;20702;-79
2021/04/13 03:35:48;;;;;;;20.08;15.48;;;5.40;94.40;;;;;;5031472;28;20567;-80
2021/04/13 03:38:21;;;;;;;20.80;15.53;;;5.40;94.90;;;;;;5032487;28;20278;-79
2021/04/13 03:40:49;;;;;;;20.67;16.30;;;5.40;94.80;;;;;;5011975;28;20190;-80
2021/04/13 03:43:21;;;;;;;21.67;16.27;;;5.40;95.00;;;;;;5027614;28;20217;-79
2021/04/13 03:45:55;;;;;;;21.25;16.00;;;5.40;95.30;;;;;;5030285;28;20260;-80
2021/04/13 03:48:25;;;;;;;21.13;16.95;;;5.50;95.30;;;;;;5031377;28;20181;-79
2021/04/13 03:51:15;;;;;;;20.35;14.88;;;5.40;95.10;;;;;;5029831;28;20258;-79
2021/04/13 03:53:46;;;;;;;22.58;17.33;;;5.50;95.00;;;;;;5032309;28;20534;-79
2021/04/13 03:56:18;;;;;;;20.92;15.75;;;5.60;94.60;;;;;;5032345;28;20178;-79
2021/04/13 03:58:56;;;;;;;20.52;15.80;;;5.60;94.50;;;;;;5031838;28;20167;-82
2021/04/13 04:01:30;;;;;;;16.85;13.40;;;5.50;94.40;;;;;;5032481;28;20228;-79
2021/04/13 04:04:03;;;;;;;22.00;16.20;;;5.50;94.50;;;;;;5030943;28;20634;-78
2021/04/13 04:06:48;;;;;;;16.75;14.93;;;5.50;94.60;;;;;;5032121;28;20269;-78
2021/04/13 04:09:33;;;;;;;19.80;15.20;;;5.50;95.00;;;;;;5012793;28;20567;-79
2021/04/13 04:12:02;;;;;;;19.75;14.25;;;5.50;95.00;;;;;;5038485;28;20202;-79
2021/04/13 04:14:30;;;;;;;18.50;14.80;;;5.60;95.30;;;;;;5032151;28;20568;-78
2021/04/13 04:17:22;;;;;;;19.52;15.45;;;5.60;95.50;;;;;;5031175;28;20269;-79
2021/04/13 04:20:01;;;;;;;19.58;15.93;;;5.70;95.50;;;;;;5029827;28;20213;-79
2021/04/13 04:22:27;;;;;;;23.35;17.90;;;5.70;95.50;;;;;;5030997;28;20174;-79
2021/04/13 04:24:54;;;;;;;21.83;17.02;;;5.60;95.60;;;;;;5030809;28;20270;-79
2021/04/13 04:27:32;;;;;;;20.20;17.00;;;5.70;95.80;;;;;;5032143;28;20178;-79
2021/04/13 04:30:24;;;;;;;18.10;15.93;;;5.70;95.90;;;;;;5031116;28;20171;-79
2021/04/13 04:32:51;;;;;;;20.48;15.70;;;5.70;95.70;;;;;;5031284;28;20241;-79
2021/04/13 04:35:32;;;;;;;21.85;15.95;;;5.80;95.60;;;;;;5030342;28;20270;-79
2021/04/13 04:38:03;;;;;;;19.70;17.27;;;5.80;95.70;;;;;;5031166;28;20186;-80
2021/04/13 04:40:29;;;;;;;15.35;13.45;;;5.80;95.50;;;;;;5030062;28;20656;-79
2021/04/13 04:43:00;;;;;;;20.00;15.37;;;5.70;95.40;;;;;;5030590;28;20241;-79
2021/04/13 04:45:35;;;;;;;19.80;15.55;;;5.80;95.60;;;;;;5031683;28;20175;-79
2021/04/13 04:48:18;;;;;;;17.73;15.40;;;5.80;95.60;;;;;;5030878;28;20178;-79
2021/04/13 04:50:45;;;;;;;20.42;17.33;;;5.80;95.60;;;;;;5030729;28;20171;-79
2021/04/13 04:53:12;;;;;;;18.38;15.40;;;5.80;95.80;;;;;;5031006;28;20170;-79
2021/04/13 04:55:38;;;;;;;19.20;16.23;;;5.80;95.90;;;;;;5030531;28;20197;-79
2021/04/13 04:58:04;;;;;;;21.00;15.80;;;5.80;95.80;;;;;;5029382;28;20186;-79
2021/04/13 05:00:29;;;;;;;20.40;17.17;;;5.90;95.70;;;;;;5034903;28;20194;-79
2021/04/13 05:02:55;;;;;;;20.80;15.10;;;5.90;95.60;;;;;;5033245;28;20213;-79
2021/04/13 05:05:21;;;;;;;20.15;18.02;;;5.90;95.90;;;;;;5034640;28;20182;-80
2021/04/13 05:07:47;;;;;;;19.57;14.20;;;5.90;96.00;;;;;;5034657;28;20236;-82
2021/04/13 05:10:13;;;;;;;20.47;17.13;;;6.00;96.20;;;;;;5034051;28;20217;-79
2021/04/13 05:12:39;;;;;;;20.52;15.63;;;6.00;96.30;;;;;;5035153;28;20225;-79
2021/04/13 05:15:05;;;;;;;21.83;17.13;;;6.00;96.40;;;;;;5034447;28;20186;-79
2021/04/13 05:17:31;;;;;;;20.60;16.10;;;6.00;96.30;;;;;;5035134;28;20183;-79
2021/04/13 05:19:56;;;;;;;20.43;16.03;;;6.00;96.50;;;;;;5034161;28;20175;-79
2021/04/13 05:22:22;;;;;;;19.13;14.80;;;6.10;96.70;;;;;;5035064;28;20233;-79
2021/04/13 05:24:48;;;;;;;22.90;15.17;;;6.10;96.40;;;;;;5034294;28;20262;-82
2021/04/13 05:27:13;;;;;;;22.37;18.57;;;6.10;96.20;;;;;;5033212;28;20183;-79
2021/04/13 05:29:39;;;;;;;19.70;16.50;;;6.20;95.90;;;;;;5032960;28;20213;-79
2021/04/13 05:32:05;;;;;;;17.97;15.03;;;6.30;96.00;;;;;;5022851;28;20218;-77
2021/04/13 05:34:31;;;;;;;21.00;16.75;;;6.30;95.90;;;;;;5033347;28;20421;-80
2021/04/13 05:36:57;;;;;;;21.03;15.40;;;6.30;95.80;;;;;;5032548;28;20263;-77
2021/04/13 05:43:43;;;;;;;21.60;13.90;;;6.40;95.50;;;;;;5036160;28;20229;-76
2021/04/13 05:46:15;;;;;;;17.13;14.20;;;6.40;95.70;;;;;;5031311;28;20195;-77
2021/04/13 05:48:40;;;;;;;22.13;13.43;;;6.50;95.60;;;;;;5027088;28;20410;-76
2021/04/13 05:51:06;;;;;;;16.60;13.43;;;6.50;95.50;;;;;;5033270;28;20183;-77
2021/04/13 05:53:32;;;;;;;18.27;14.33;;;6.60;95.60;;;;;;5034521;28;20658;-78
2021/04/13 05:55:58;;;;;;;16.93;14.53;;;6.60;95.20;;;;;;5033005;28;20175;-79
2021/04/13 05:58:33;;;;;;;20.30;17.13;;;6.70;94.80;;;;;;5029990;28;20183;-77
2021/04/13 06:01:03;;;;;;;18.97;13.73;;;6.80;94.60;;;;;;5024571;28;20397;-78
2021/04/13 06:03:30;;;;;;;18.90;16.73;;;6.80;94.50;;;;;;5034904;28;20803;-77
2021/04/13 06:05:57;;;;;;;17.52;13.85;;;6.80;94.40;;;;;;5032797;28;20218;-78
2021/04/13 06:08:23;;;;;;;16.52;14.07;;;6.90;94.30;;;;;;5032772;28;20183;-84
2021/04/13 06:10:49;;;;;;;15.85;13.55;;;6.90;94.20;;;;;;5029163;28;20574;-81
2021/04/13 06:13:17;;;;;;;17.20;15.40;;;6.90;93.90;;;;;;5012619;28;20681;-78
2021/04/13 06:15:43;;;;;;;14.82;13.00;;;7.00;93.90;;;;;;5014393;28;20434;-77
2021/04/13 06:18:08;;;;;;;19.00;13.37;;;7.00;93.80;;;;;;5028430;28;20171;-80
2021/04/13 06:20:34;;;;;;;21.00;15.93;;;7.20;95.00;;;;;;5034132;28;20265;-80
2021/04/13 06:23:00;;;;;;;19.20;15.47;;;7.90;96.10;;;;;;5029867;28;20204;-81
2021/04/13 06:25:31;;;;;;;15.57;14.03;;;8.70;95.80;;;;;;5024433;28;20775;-80
2021/04/13 06:27:57;;;;;;;15.50;13.37;;;9.40;94.10;;;;;;5027000;28;20416;-81
2021/04/13 06:30:25;;;;;;;18.50;13.50;;;10.00;92.00;;;;;;5033328;28;20970;-78
2021/04/13 06:32:52;;;;;;;13.97;12.57;;;10.60;91.00;;;;;;5033914;28;20463;-79
2021/04/13 06:35:19;;;;;;;16.40;12.40;;;11.10;89.20;;;;;;5034271;28;20489;-79
2021/04/13 06:37:46;;;;;;;15.20;12.00;;;11.50;85.80;;;;;;5033009;28;20410;-74
2021/04/13 06:40:27;;;;;;;20.33;13.83;;;11.60;82.00;;;;;;5024576;28;20659;-73
2021/04/13 06:43:05;;;;;;;15.53;12.40;;;11.40;79.60;;;;;;5029432;28;20433;-70
2021/04/13 06:45:40;;;;;;;14.57;12.90;;;11.00;79.10;;;;;;5028721;28;20470;-70
2021/04/13 06:48:11;;;;;;;12.80;11.40;;;10.70;79.60;;;;;;5032031;28;20478;-70
2021/04/13 06:50:51;;;;;;;19.33;13.07;;;10.40;80.10;;;;;;5032859;28;20776;-70
2021/04/13 06:53:43;;;;;;;13.50;12.10;;;10.10;81.60;;;;;;5013332;28;20891;-69
2021/04/13 06:56:17;;;;;;;15.40;10.53;;;9.90;84.50;;;;;;5031756;28;20418;-71
2021/04/13 06:59:05;;;;;;;16.03;11.13;;;9.70;86.00;;;;;;5020992;28;20916;-71
2021/04/13 07:01:33;;;;;;;14.80;10.17;;;9.50;86.80;;;;;;5033023;28;20464;-72
2021/04/13 07:04:05;;;;;;;11.67;10.57;;;9.40;87.90;;;;;;5031776;28;20467;-71
2021/04/13 07:07:14;;;;;;;15.23;10.07;;;9.20;88.80;;;;;;5032537;28;20421;-70
2021/04/13 07:09:47;;;;;;;9.30;8.50;;;9.10;90.00;;;;;;5010885;28;20384;-76
2021/04/13 07:12:28;;;;;;;14.83;9.30;;;9.10;90.70;;;;;;5000936;28;20540;-70
2021/04/13 07:15:09;;;;;;;10.73;7.63;;;9.00;91.10;;;;;;5005283;28;20437;-72
2021/04/13 07:17:52;;;;;;;9.43;8.50;;;8.90;90.90;;;;;;5031382;28;20443;-71
2021/04/13 07:20:22;;;;;;;10.40;8.47;;;8.90;91.20;;;;;;5029592;28;20423;-71
2021/04/13 07:23:01;;;;;;;10.20;7.77;;;8.90;91.60;;;;;;5022720;28;20998;-70
2021/04/13 07:25:31;;;;;;;10.97;8.27;;;8.90;91.80;;;;;;5026961;28;20504;-70
2021/04/13 07:28:00;;;;;;;9.03;8.00;;;8.90;91.80;;;;;;5032033;28;20421;-72
2021/04/13 07:30:38;;;;;;;9.60;7.70;;;8.80;91.70;;;;;;5031325;28;20455;-71
2021/04/13 07:33:05;;;;;;;9.83;8.03;;;8.80;91.80;;;;;;5024277;28;20476;-70
2021/04/13 07:35:34;;;;;;;10.93;7.70;;;8.80;92.00;;;;;;5011290;28;20947;-70
2021/04/13 07:38:29;;;;;;;15.53;7.73;;;8.80;91.60;;;;;;5019458;28;20474;-71
2021/04/13 07:41:02;;;;;;;8.83;7.53;;;8.80;91.90;;;;;;5031455;28;20421;-72
2021/04/13 07:43:39;;;;;;;10.50;8.60;;;8.80;92.10;;;;;;5031686;28;20452;-71
2021/04/13 07:46:32;;;;;;;9.30;7.00;;;8.80;92.00;;;;;;5031223;28;20408;-70
2021/04/13 07:49:16;;;;;;;12.10;7.03;;;8.80;92.40;;;;;;5031428;28;20438;-72
2021/04/13 07:52:03;;;;;;;11.07;7.60;;;8.80;92.20;;;;;;5012263;28;20398;-70
2021/04/13 07:54:37;;;;;;;11.67;7.23;;;8.90;92.00;;;;;;5016175;28;20769;-70
2021/04/13 07:57:09;;;;;;;8.70;7.17;;;9.10;92.60;;;;;;5017688;28;20420;-71
2021/04/13 07:59:46;;;;;;;10.73;7.03;;;9.20;92.30;;;;;;5023004;28;20417;-71
2021/04/13 08:02:12;;;;;;;6.60;6.00;;;9.20;92.40;;;;;;5011132;28;20794;-71
2021/04/13 08:04:38;;;;;;;8.90;6.20;;;9.30;92.40;;;;;;5027799;28;20448;-71
2021/04/13 08:07:27;;;;;;;6.83;6.07;;;9.40;92.00;;;;;;5030946;28;20488;-71
2021/04/13 08:10:28;;;;;;;6.83;5.63;;;9.50;91.70;;;;;;5031364;28;20413;-71
2021/04/13 08:13:00;;;;;;;9.60;6.60;;;9.50;91.50;;;;;;5022902;28;20421;-71
2021/04/13 08:15:39;;;;;;;10.70;6.70;;;9.60;91.00;;;;;;5031040;28;20479;-71
2021/04/13 08:18:27;;;;;;;9.60;7.10;;;9.60;90.80;;;;;;5030857;28;20417;-71
2021/04/13 08:21:13;;;;;;;13.77;6.90;;;9.60;91.10;;;;;;5027943;28;20777;-71
2021/04/13 08:23:39;;;;;;;8.77;6.83;;;9.60;91.50;;;;;;5018600;28;20452;-71
2021/04/13 08:26:27;;;;;;;8.33;7.40;;;9.70;92.00;;;;;;5015757;28;20772;-71
2021/04/13 08:28:58;;;;;;;9.13;7.27;;;9.70;91.80;;;;;;5030183;28;20424;-71
2021/04/13 08:34:22;;;;;;;9.40;8.40;;;9.70;91.50;;;;;;5029529;28;20482;-72
2021/04/13 08:36:52;;;;;;;8.63;7.57;;;9.80;91.50;;;;;;5024300;28;20416;-72
2021/04/13 08:39:30;;;;;;;9.03;8.13;;;9.80;91.70;;;;;;5034363;28;21080;-72
2021/04/13 08:42:04;;;;;;;9.10;8.20;;;9.80;91.30;;;;;;5025053;28;20438;-73
2021/04/13 08:44:55;;;;;;;14.03;10.67;;;9.80;91.00;;;;;;5034458;28;20559;-73
2021/04/13 08:47:45;;;;;;;11.43;9.90;;;9.80;90.50;;;;;;5033377;28;20425;-72
2021/04/13 08:50:41;;;;;;;11.87;10.40;;;9.80;91.00;;;;;;5032485;28;20761;-72
2021/04/13 08:53:31;;;;;;;12.00;9.37;;;9.90;91.20;;;;;;5025508;28;20412;-73
2021/04/13 08:56:09;;;;;;;9.87;8.60;;;10.00;90.60;;;;;;5029598;28;20781;-74
2021/04/13 08:58:46;;;;;;;9.17;8.37;;;10.10;90.50;;;;;;5027328;28;20418;-73
2021/04/13 09:01:40;;;;;;;10.13;8.63;;;10.30;90.20;;;;;;5022980;28;20947;-73
2021/04/13 09:04:12;;;;;;;10.90;7.97;;;10.40;86.30;;;;;;5032865;28;20828;-72
2021/04/13 09:06:57;;;;;;;9.73;8.07;;;10.40;87.40;;;;;;5034639;28;20464;-73
2021/04/13 09:09:42;;;;;;;10.53;8.83;;;10.40;88.00;;;;;;5030760;28;20417;-72
2021/04/13 09:12:17;;;;;;;7.20;6.50;;;10.40;87.00;;;;;;5022784;28;20747;-72
2021/04/13 09:15:09;;;;;;;5.17;4.63;;;10.40;85.20;;;;;;5016391;28;20468;-72
2021/04/13 09:18:08;;;;;;;7.90;4.80;;;10.40;84.70;;;;;;5015869;28;20425;-73
2021/04/13 09:20:37;;;;;;;6.80;4.40;;;10.50;87.30;;;;;;5028379;28;20463;-72
2021/04/13 09:23:14;;;;;;;6.40;3.97;;;10.50;85.00;;;;;;5018848;28;20432;-72
2021/04/13 09:25:59;;;;;;;6.03;4.57;;;10.60;84.00;;;;;;5028233;28;20991;-71
2021/04/13 09:28:40;;;;;;;3.60;3.30;;;10.60;83.80;;;;;;5029867;28;20472;-71
2021/04/13 09:31:09;;;;;;;5.43;4.17;;;10.80;82.80;;;;;;5019169;28;20420;-72
2021/04/13 09:33:43;;;;;;;6.67;5.60;;;10.90;80.50;;;;;;5029027;28;20462;-72
2021/04/13 09:36:37;;;;;;;5.63;3.57;;;10.80;81.40;;;;;;5033472;28;20782;-72
2021/04/13 09:39:24;;;;;;;4.53;3.20;;;10.90;80.50;;;;;;5015236;28;20457;-74
2021/04/13 09:42:05;;;;;;;4.07;3.07;;;10.90;81.70;;;;;;5036940;28;20495;-72
2021/04/13 09:44:50;;;;;;;4.10;2.77;;;10.80;81.50;;;;;;5033007;28;20518;-78
2021/04/13 09:47:18;;;;;;;7.63;2.33;;;10.70;81.60;;;;;;5032945;28;20410;-72
2021/04/13 09:50:18;;;;;;;6.60;3.70;;;10.60;81.40;;;;;;5034472;28;20433;-72
2021/04/13 09:53:02;;;;;;;5.10;2.47;;;10.70;83.00;;;;;;5034631;28;20425;-73
2021/04/13 09:56:01;;;;;;;5.20;3.13;;;10.90;83.40;;;;;;5031754;28;20455;-72
2021/04/13 09:58:45;;;;;;;3.20;2.97;;;11.30;81.50;;;;;;5033049;28;20423;-74
2021/04/13 10:01:23;;;;;;;3.57;2.80;;;11.80;83.00;;;;;;5025269;28;20777;-72
2021/04/13 10:04:07;;;;;;;3.83;3.17;;;12.30;77.60;;;;;;5014464;28;20442;-72
2021/04/13 10:06:40;;;;;;;7.70;3.37;;;12.80;79.80;;;;;;5025901;28;20983;-72
2021/04/13 10:09:25;;;;;;;6.60;3.60;;;13.30;75.20;;;;;;5022493;28;20971;-73
2021/04/13 10:12:05;;;;;;;26.63;18.10;;;13.70;72.90;;;;;;5026454;28;20415;-73
2021/04/13 10:15:01;;;;;;;112.23;100.07;;;14.10;87.00;;;;;;5030713;28;20426;-73
2021/04/13 10:17:52;;;;;;;17.87;14.73;;;14.40;71.10;;;;;;5025959;28;20482;-72
2021/04/13 10:20:27;;;;;;;24.47;22.00;;;14.40;62.80;;;;;;5033097;28;20473;-72
2021/04/13 10:23:12;;;;;;;4.80;4.20;;;14.20;61.60;;;;;;5034009;28;20427;-72
2021/04/13 10:25:40;;;;;;;8.73;4.40;;;13.90;61.80;;;;;;5027472;28;20422;-72
2021/04/13 10:28:43;;;;;;;4.77;4.37;;;13.40;65.90;;;;;;5013305;28;20482;-72
2021/04/13 10:31:33;;;;;;;4.10;3.00;;;13.10;64.60;;;;;;5025240;28;20397;-72
2021/04/13 10:34:29;;;;;;;4.27;2.93;;;12.90;65.80;;;;;;5033973;28;20451;-71
2021/04/13 10:37:36;;;;;;;8.50;4.50;;;13.10;70.00;;;;;;5033922;28;20400;-72
2021/04/13 10:40:33;;;;;;;4.30;3.70;;;13.30;72.50;;;;;;5033459;28;20398;-72
2021/04/13 10:43:19;;;;;;;3.80;3.40;;;13.70;69.40;;;;;;5032955;28;20764;-72
2021/04/13 10:46:01;;;;;;;5.15;3.60;;;14.10;66.40;;;;;;5016875;28;20573;-71
2021/04/13 10:48:51;;;;;;;6.77;6.07;;;14.40;64.30;;;;;;5013680;28;20257;-72
2021/04/13 10:51:35;;;;;;;3.90;3.43;;;14.70;66.40;;;;;;5013008;28;20414;-72
2021/04/13 10:54:23;;;;;;;3.63;3.10;;;15.10;63.20;;;;;;5012621;28;20765;-72
2021/04/13 10:56:52;;;;;;;5.43;3.10;;;15.30;59.50;;;;;;5012549;28;20840;-72
2021/04/13 10:59:50;;;;;;;6.63;4.17;;;15.50;58.20;;;;;;5012874;28;20422;-72
2021/04/13 11:02:56;;;;;;;4.40;3.73;;;15.70;62.40;;;;;;5012789;28;20411;-72
2021/04/13 11:06:08;;;;;;;3.70;3.20;;;15.50;59.40;;;;;;5011928;28;20458;-71
2021/04/13 11:09:12;;;;;;;3.30;3.00;;;15.20;57.70;;;;;;5012407;28;20449;-72
2021/04/13 11:12:11;;;;;;;4.93;4.30;;;14.80;58.10;;;;;;5011152;28;20432;-72
2021/04/13 11:15:03;;;;;;;6.87;3.90;;;14.40;60.00;;;;;;5012929;28;20931;-73
2021/04/13 11:17:49;;;;;;;2.87;2.67;;;14.00;61.30;;;;;;5012786;28;20404;-72
2021/04/13 11:20:22;;;;;;;6.47;4.33;;;13.70;59.50;;;;;;5012726;28;20426;-73
2021/04/13 11:23:22;;;;;;;4.33;2.90;;;13.60;58.30;;;;;;5013243;28;20453;-72
2021/04/13 11:25:50;;;;;;;3.43;3.13;;;13.40;64.40;;;;;;5011843;28;20427;-72
2021/04/13 11:28:34;;;;;;;3.77;2.60;;;13.70;65.30;;;;;;5012614;28;20755;-72
2021/04/13 11:31:46;;;;;;;4.63;3.40;;;13.90;60.20;;;;;;5013191;28;20408;-72
2021/04/13 11:34:17;;;;;;;3.43;3.13;;;13.90;59.00;;;;;;5011346;28;20424;-73
2021/04/13 11:36:43;;;;;;;4.23;2.87;;;13.80;58.10;;;;;;5012810;28;20422;-72
2021/04/13 11:39:35;;;;;;;8.27;3.40;;;13.70;56.70;;;;;;5012838;28;20410;-74
2021/04/13 11:42:30;;;;;;;4.90;3.17;;;13.60;58.10;;;;;;5011730;28;20190;-73
2021/04/13 11:45:11;;;;;;;3.10;2.70;;;13.50;57.70;;;;;;5012737;28;20536;-73
2021/04/13 11:48:08;;;;;;;3.00;2.80;;;13.60;58.20;;;;;;5012872;28;20430;-72
2021/04/13 11:50:54;;;;;;;2.60;2.40;;;13.90;58.20;;;;;;5012511;28;20423;-72
2021/04/13 11:53:28;;;;;;;3.40;2.37;;;14.10;56.50;;;;;;5012043;28;20504;-73
2021/04/13 11:55:55;;;;;;;4.70;2.60;;;14.30;55.60;;;;;;5012799;28;20409;-72
2021/04/13 11:58:27;;;;;;;3.40;3.20;;;14.30;56.30;;;;;;5010778;28;20911;-72
2021/04/13 12:01:15;;;;;;;5.07;2.80;;;14.30;57.80;;;;;;5012933;28;20904;-73
2021/04/13 12:04:12;;;;;;;3.93;3.13;;;14.40;53.20;;;;;;5012586;28;20455;-72
2021/04/13 12:07:05;;;;;;;4.00;3.30;;;14.10;57.70;;;;;;5012046;28;20426;-72
2021/04/13 12:10:00;;;;;;;3.30;2.80;;;13.90;58.60;;;;;;5011957;28;20410;-72
2021/04/13 12:12:32;;;;;;;2.70;2.60;;;13.70;57.80;;;;;;5011799;28;20422;-72
2021/04/13 12:15:19;;;;;;;3.10;2.30;;;13.50;58.70;;;;;;5012890;28;20745;-71
2021/04/13 12:17:52;;;;;;;2.40;2.30;;;13.50;59.20;;;;;;5011140;28;20433;-72
2021/04/13 12:20:35;;;;;;;5.90;2.67;;;13.60;57.30;;;;;;5011672;28;20415;-72
2021/04/13 12:23:05;;;;;;;3.97;3.80;;;13.80;56.20;;;;;;5010952;28;20407;-72
2021/04/13 12:25:44;;;;;;;2.20;2.07;;;14.10;56.80;;;;;;5014376;28;20427;-72
2021/04/13 12:28:33;;;;;;;4.63;4.33;;;14.30;55.60;;;;;;5012607;28;20424;-73
2021/04/13 12:31:05;;;;;;;3.33;2.87;;;14.50;53.70;;;;;;5012702;28;20440;-72
2021/04/13 12:33:31;;;;;;;4.40;4.10;;;14.80;52.10;;;;;;5030197;28;20468;-72
2021/04/13 12:36:08;;;;;;;3.40;3.20;;;14.90;50.30;;;;;;5031094;28;20498;-72
2021/04/13 12:38:52;;;;;;;3.63;3.23;;;14.90;48.70;;;;;;5028311;28;20177;-71
2021/04/13 12:41:30;;;;;;;3.67;3.20;;;14.90;47.60;;;;;;5030639;28;20403;-72
2021/04/13 12:44:18;;;;;;;2.83;2.60;;;14.60;47.70;;;;;;5029597;28;20885;-72
2021/04/13 12:46:46;;;;;;;4.63;4.13;;;14.40;49.30;;;;;;5016316;28;20431;-72
2021/04/13 12:49:12;;;;;;;3.20;3.00;;;14.10;49.90;;;;;;5026349;28;20431;-71
2021/04/13 12:52:16;;;;;;;3.30;3.00;;;13.90;50.00;;;;;;5030831;28;20434;-71
2021/04/13 12:54:43;;;;;;;2.70;2.50;;;13.70;49.40;;;;;;5028627;28;20561;-71
2021/04/13 12:57:17;;;;;;;2.50;2.30;;;13.70;48.90;;;;;;5027211;28;20459;-71
2021/04/13 12:59:44;;;;;;;2.70;1.70;;;13.90;49.40;;;;;;5030839;28;20448;-71
2021/04/13 13:02:36;;;;;;;2.83;1.90;;;14.10;48.80;;;;;;5013712;28;20470;-71
2021/04/13 13:05:17;;;;;;;4.20;4.00;;;14.20;47.00;;;;;;5027768;28;20484;-71
2021/04/13 13:07:57;;;;;;;3.10;1.80;;;14.10;47.50;;;;;;5028852;28;20430;-71
2021/04/13 13:10:32;;;;;;;2.00;1.90;;;14.00;47.30;;;;;;5024722;28;20411;-71
2021/04/13 13:13:13;;;;;;;1.90;1.70;;;13.90;46.40;;;;;;5022007;28;20441;-71
2021/04/13 13:15:40;;;;;;;2.90;1.90;;;13.70;46.40;;;;;;5013501;28;20433;-71
2021/04/13 13:18:17;;;;;;;2.37;2.10;;;13.50;44.80;;;;;;5028817;28;20499;-70
2021/04/13 13:20:44;;;;;;;2.37;2.27;;;13.30;46.30;;;;;;5032730;28;20405;-71
2021/04/13 13:23:24;;;;;;;3.23;2.33;;;13.30;48.60;;;;;;5034372;28;20423;-72
2021/04/13 13:25:50;;;;;;;2.60;2.50;;;13.30;49.60;;;;;;5034915;28;20930;-71
2021/04/13 13:28:24;;;;;;;3.27;3.07;;;13.40;49.10;;;;;;5031867;28;20424;-71
2021/04/13 13:30:52;;;;;;;4.37;3.97;;;13.60;51.40;;;;;;5027172;28;20246;-71
2021/04/13 13:33:20;;;;;;;3.33;2.13;;;13.80;51.80;;;;;;5022273;28;20883;-71
2021/04/13 13:35:47;;;;;;;4.70;4.40;;;14.10;53.00;;;;;;5031615;28;20425;-71
2021/04/13 13:38:20;;;;;;;3.77;3.60;;;14.30;51.90;;;;;;5029225;28;20431;-72
2021/04/13 13:40:47;;;;;;;3.60;2.20;;;14.50;51.60;;;;;;5028348;28;20454;-72
2021/04/13 13:43:21;;;;;;;5.27;4.97;;;14.50;53.70;;;;;;5027719;28;20522;-71